Aviation Digital Data Service (ADDS)

Output produced by METARs form (1129 UTC 25 June 2019)
found at http://www.aviationweather.gov/metar/data/
 
Forecast for: OKBK (KUWAIT INTL (MIL, KW)
Text: TAF OKBK 251045Z 2512/2618 34012KT 7000 SKC
Forecast period: 1200 UTC 25 June 2019 to 1800 UTC 26 June 2019
Forecast type: FROM: standard forecast or significant change
Winds: from the NNW (340 degrees) at 14 MPH (12 knots; 6.2 m/s)
Visibility: 4 miles (7 km)
Clouds: clear skies
Weather: no significant weather forecast for this period